sensor_id;sensor_type;location;lat;lon;timestamp;P1;durP1;ratioP1;P2;durP2;ratioP2
78844;SDS011;68195;50.854;2.860;2023-04-24T00:00:16;4.75;;;3.35;;
78844;SDS011;68195;50.854;2.860;2023-04-24T00:02:44;5.78;;;3.00;;
78844;SDS011;68195;50.854;2.860;2023-04-24T00:05:13;4.13;;;3.20;;
78844;SDS011;68195;50.854;2.860;2023-04-24T00:07:40;5.40;;;3.78;;
78844;SDS011;68195;50.854;2.860;2023-04-24T00:12:31;6.82;;;3.60;;
78844;SDS011;68195;50.854;2.860;2023-04-24T00:14:57;5.35;;;3.67;;
78844;SDS011;68195;50.854;2.860;2023-04-24T00:17:24;5.25;;;3.88;;
78844;SDS011;68195;50.854;2.860;2023-04-24T00:19:50;4.97;;;4.03;;
78844;SDS011;68195;50.854;2.860;2023-04-24T00:22:16;5.97;;;3.60;;
78844;SDS011;68195;50.854;2.860;2023-04-24T00:27:10;5.68;;;3.63;;
78844;SDS011;68195;50.854;2.860;2023-04-24T00:29:38;8.23;;;4.63;;
78844;SDS011;68195;50.854;2.860;2023-04-24T00:32:03;5.95;;;3.78;;
78844;SDS011;68195;50.854;2.860;2023-04-24T00:34:29;5.65;;;4.10;;
78844;SDS011;68195;50.854;2.860;2023-04-24T00:36:54;6.57;;;4.65;;
78844;SDS011;68195;50.854;2.860;2023-04-24T00:39:19;6.93;;;4.60;;
78844;SDS011;68195;50.854;2.860;2023-04-24T00:41:47;9.77;;;4.97;;
78844;SDS011;68195;50.854;2.860;2023-04-24T00:44:16;8.80;;;4.63;;
78844;SDS011;68195;50.854;2.860;2023-04-24T00:46:42;6.35;;;4.95;;
78844;SDS011;68195;50.854;2.860;2023-04-24T00:49:07;8.48;;;5.78;;
78844;SDS011;68195;50.854;2.860;2023-04-24T00:51:33;9.13;;;5.32;;
78844;SDS011;68195;50.854;2.860;2023-04-24T00:54:03;6.65;;;4.78;;
78844;SDS011;68195;50.854;2.860;2023-04-24T00:56:29;8.68;;;5.82;;
78844;SDS011;68195;50.854;2.860;2023-04-24T00:58:55;7.75;;;5.60;;
78844;SDS011;68195;50.854;2.860;2023-04-24T01:01:21;9.93;;;5.40;;
78844;SDS011;68195;50.854;2.860;2023-04-24T01:03:47;8.93;;;5.43;;
78844;SDS011;68195;50.854;2.860;2023-04-24T01:06:14;8.73;;;5.03;;
78844;SDS011;68195;50.854;2.860;2023-04-24T01:11:06;11.48;;;5.35;;
78844;SDS011;68195;50.854;2.860;2023-04-24T01:13:32;9.90;;;5.72;;
78844;SDS011;68195;50.854;2.860;2023-04-24T01:15:58;9.82;;;6.13;;
78844;SDS011;68195;50.854;2.860;2023-04-24T01:18:24;7.95;;;5.47;;
78844;SDS011;68195;50.854;2.860;2023-04-24T01:20:49;8.07;;;5.10;;
78844;SDS011;68195;50.854;2.860;2023-04-24T01:23:18;7.35;;;4.93;;
78844;SDS011;68195;50.854;2.860;2023-04-24T01:28:09;11.95;;;6.35;;
78844;SDS011;68195;50.854;2.860;2023-04-24T01:30:35;9.77;;;6.13;;
78844;SDS011;68195;50.854;2.860;2023-04-24T01:33:03;14.27;;;7.90;;
78844;SDS011;68195;50.854;2.860;2023-04-24T01:35:29;10.77;;;7.18;;
78844;SDS011;68195;50.854;2.860;2023-04-24T01:37:57;12.93;;;8.30;;
78844;SDS011;68195;50.854;2.860;2023-04-24T01:40:23;18.67;;;10.90;;
78844;SDS011;68195;50.854;2.860;2023-04-24T01:42:50;17.20;;;9.70;;
78844;SDS011;68195;50.854;2.860;2023-04-24T01:45:16;15.35;;;10.02;;
78844;SDS011;68195;50.854;2.860;2023-04-24T01:47:44;19.52;;;10.10;;
78844;SDS011;68195;50.854;2.860;2023-04-24T01:50:11;19.38;;;9.27;;
78844;SDS011;68195;50.854;2.860;2023-04-24T01:52:36;14.82;;;9.52;;
78844;SDS011;68195;50.854;2.860;2023-04-24T01:55:02;16.90;;;10.05;;
78844;SDS011;68195;50.854;2.860;2023-04-24T01:57:29;16.42;;;8.55;;
78844;SDS011;68195;50.854;2.860;2023-04-24T01:59:55;14.68;;;8.88;;
78844;SDS011;68195;50.854;2.860;2023-04-24T02:02:21;15.18;;;9.93;;
78844;SDS011;68195;50.854;2.860;2023-04-24T02:04:48;18.27;;;10.55;;
78844;SDS011;68195;50.854;2.860;2023-04-24T02:07:19;19.42;;;11.48;;
78844;SDS011;68195;50.854;2.860;2023-04-24T02:09:45;18.50;;;10.43;;
78844;SDS011;68195;50.854;2.860;2023-04-24T02:12:12;17.85;;;10.45;;
78844;SDS011;68195;50.854;2.860;2023-04-24T02:14:43;17.88;;;9.77;;
78844;SDS011;68195;50.854;2.860;2023-04-24T02:17:09;21.85;;;12.60;;
78844;SDS011;68195;50.854;2.860;2023-04-24T02:19:34;25.27;;;12.27;;
78844;SDS011;68195;50.854;2.860;2023-04-24T02:22:02;22.15;;;10.35;;
78844;SDS011;68195;50.854;2.860;2023-04-24T02:24:30;20.73;;;12.23;;
78844;SDS011;68195;50.854;2.860;2023-04-24T02:26:55;19.42;;;10.55;;
78844;SDS011;68195;50.854;2.860;2023-04-24T02:29:21;18.05;;;10.52;;
78844;SDS011;68195;50.854;2.860;2023-04-24T02:31:46;16.42;;;9.77;;
78844;SDS011;68195;50.854;2.860;2023-04-24T02:34:12;20.48;;;10.13;;
78844;SDS011;68195;50.854;2.860;2023-04-24T02:36:37;16.08;;;9.10;;
78844;SDS011;68195;50.854;2.860;2023-04-24T02:39:05;19.75;;;11.02;;
78844;SDS011;68195;50.854;2.860;2023-04-24T02:41:30;25.30;;;12.07;;
78844;SDS011;68195;50.854;2.860;2023-04-24T02:44:00;19.88;;;13.85;;
78844;SDS011;68195;50.854;2.860;2023-04-24T02:46:25;20.27;;;11.05;;
78844;SDS011;68195;50.854;2.860;2023-04-24T02:48:51;24.88;;;12.90;;
78844;SDS011;68195;50.854;2.860;2023-04-24T02:51:18;22.58;;;12.45;;
78844;SDS011;68195;50.854;2.860;2023-04-24T02:53:44;24.75;;;13.07;;
78844;SDS011;68195;50.854;2.860;2023-04-24T02:56:09;28.95;;;13.35;;
78844;SDS011;68195;50.854;2.860;2023-04-24T02:58:39;27.33;;;14.43;;
78844;SDS011;68195;50.854;2.860;2023-04-24T03:01:05;27.63;;;13.38;;
78844;SDS011;68195;50.854;2.860;2023-04-24T03:03:30;22.50;;;13.43;;
78844;SDS011;68195;50.854;2.860;2023-04-24T03:05:56;23.67;;;13.48;;
78844;SDS011;68195;50.854;2.860;2023-04-24T03:08:22;19.98;;;12.68;;
78844;SDS011;68195;50.854;2.860;2023-04-24T03:10:48;24.60;;;12.13;;
78844;SDS011;68195;50.854;2.860;2023-04-24T03:13:13;20.35;;;11.25;;
78844;SDS011;68195;50.854;2.860;2023-04-24T03:15:38;19.25;;;10.90;;
78844;SDS011;68195;50.854;2.860;2023-04-24T03:18:09;17.23;;;11.77;;
78844;SDS011;68195;50.854;2.860;2023-04-24T03:20:36;22.95;;;11.43;;
78844;SDS011;68195;50.854;2.860;2023-04-24T03:23:04;18.02;;;11.18;;
78844;SDS011;68195;50.854;2.860;2023-04-24T03:25:32;21.67;;;11.63;;
78844;SDS011;68195;50.854;2.860;2023-04-24T03:28:02;21.38;;;10.63;;
78844;SDS011;68195;50.854;2.860;2023-04-24T03:30:27;24.27;;;11.27;;
78844;SDS011;68195;50.854;2.860;2023-04-24T03:32:53;18.88;;;10.88;;
78844;SDS011;68195;50.854;2.860;2023-04-24T03:35:20;21.50;;;9.98;;
78844;SDS011;68195;50.854;2.860;2023-04-24T03:40:12;20.48;;;9.95;;
78844;SDS011;68195;50.854;2.860;2023-04-24T03:42:37;22.67;;;11.23;;
78844;SDS011;68195;50.854;2.860;2023-04-24T03:45:03;18.88;;;10.73;;
78844;SDS011;68195;50.854;2.860;2023-04-24T03:47:31;19.02;;;10.10;;
78844;SDS011;68195;50.854;2.860;2023-04-24T03:50:02;18.30;;;10.40;;
78844;SDS011;68195;50.854;2.860;2023-04-24T03:52:30;19.85;;;9.80;;
78844;SDS011;68195;50.854;2.860;2023-04-24T03:54:55;15.77;;;9.43;;
78844;SDS011;68195;50.854;2.860;2023-04-24T03:57:20;14.93;;;8.93;;
78844;SDS011;68195;50.854;2.860;2023-04-24T03:59:46;16.38;;;9.23;;
78844;SDS011;68195;50.854;2.860;2023-04-24T04:02:11;15.10;;;8.40;;
78844;SDS011;68195;50.854;2.860;2023-04-24T04:04:40;15.45;;;9.57;;
78844;SDS011;68195;50.854;2.860;2023-04-24T04:07:05;14.50;;;8.63;;
78844;SDS011;68195;50.854;2.860;2023-04-24T04:09:31;19.70;;;8.77;;
78844;SDS011;68195;50.854;2.860;2023-04-24T04:11:57;16.35;;;7.80;;
78844;SDS011;68195;50.854;2.860;2023-04-24T04:14:25;18.08;;;9.15;;
78844;SDS011;68195;50.854;2.860;2023-04-24T04:16:51;12.23;;;7.97;;
78844;SDS011;68195;50.854;2.860;2023-04-24T04:19:16;15.05;;;8.27;;
78844;SDS011;68195;50.854;2.860;2023-04-24T04:21:44;14.60;;;7.72;;
78844;SDS011;68195;50.854;2.860;2023-04-24T04:24:10;15.38;;;8.82;;
78844;SDS011;68195;50.854;2.860;2023-04-24T04:26:38;14.50;;;8.38;;
78844;SDS011;68195;50.854;2.860;2023-04-24T04:29:04;13.90;;;8.25;;
78844;SDS011;68195;50.854;2.860;2023-04-24T04:31:29;13.02;;;8.45;;
78844;SDS011;68195;50.854;2.860;2023-04-24T04:36:20;16.13;;;6.97;;
78844;SDS011;68195;50.854;2.860;2023-04-24T04:38:48;12.48;;;6.97;;
78844;SDS011;68195;50.854;2.860;2023-04-24T04:41:16;15.57;;;8.25;;
78844;SDS011;68195;50.854;2.860;2023-04-24T04:43:43;13.80;;;8.25;;
78844;SDS011;68195;50.854;2.860;2023-04-24T04:46:08;19.02;;;8.27;;
78844;SDS011;68195;50.854;2.860;2023-04-24T04:48:35;14.88;;;8.20;;
78844;SDS011;68195;50.854;2.860;2023-04-24T04:51:01;14.85;;;8.07;;
78844;SDS011;68195;50.854;2.860;2023-04-24T04:53:26;20.70;;;8.98;;
78844;SDS011;68195;50.854;2.860;2023-04-24T04:55:54;19.10;;;10.30;;
78844;SDS011;68195;50.854;2.860;2023-04-24T04:58:22;19.73;;;9.65;;
78844;SDS011;68195;50.854;2.860;2023-04-24T05:00:47;15.63;;;9.45;;
78844;SDS011;68195;50.854;2.860;2023-04-24T05:03:13;16.88;;;10.15;;
78844;SDS011;68195;50.854;2.860;2023-04-24T05:05:38;15.18;;;9.18;;
78844;SDS011;68195;50.854;2.860;2023-04-24T05:08:05;16.13;;;9.20;;
78844;SDS011;68195;50.854;2.860;2023-04-24T05:10:32;13.68;;;8.98;;
78844;SDS011;68195;50.854;2.860;2023-04-24T05:13:01;17.00;;;9.25;;
78844;SDS011;68195;50.854;2.860;2023-04-24T05:15:27;17.55;;;10.88;;
78844;SDS011;68195;50.854;2.860;2023-04-24T05:17:52;16.47;;;9.47;;
78844;SDS011;68195;50.854;2.860;2023-04-24T05:20:18;17.88;;;10.18;;
78844;SDS011;68195;50.854;2.860;2023-04-24T05:22:43;21.58;;;9.93;;
78844;SDS011;68195;50.854;2.860;2023-04-24T05:25:08;17.50;;;10.43;;
78844;SDS011;68195;50.854;2.860;2023-04-24T05:27:34;18.80;;;10.35;;
78844;SDS011;68195;50.854;2.860;2023-04-24T05:30:02;20.20;;;10.13;;
78844;SDS011;68195;50.854;2.860;2023-04-24T05:32:28;16.55;;;10.48;;
78844;SDS011;68195;50.854;2.860;2023-04-24T05:34:53;20.38;;;10.73;;
78844;SDS011;68195;50.854;2.860;2023-04-24T05:37:21;24.10;;;10.82;;
78844;SDS011;68195;50.854;2.860;2023-04-24T05:39:46;20.00;;;10.60;;
78844;SDS011;68195;50.854;2.860;2023-04-24T05:42:14;24.90;;;11.30;;
78844;SDS011;68195;50.854;2.860;2023-04-24T05:44:39;22.08;;;11.68;;
78844;SDS011;68195;50.854;2.860;2023-04-24T05:47:07;19.98;;;12.15;;
78844;SDS011;68195;50.854;2.860;2023-04-24T05:49:32;19.73;;;10.60;;
78844;SDS011;68195;50.854;2.860;2023-04-24T05:51:58;21.33;;;10.90;;
78844;SDS011;68195;50.854;2.860;2023-04-24T05:54:23;19.88;;;11.20;;
78844;SDS011;68195;50.854;2.860;2023-04-24T05:56:49;17.05;;;10.07;;
78844;SDS011;68195;50.854;2.860;2023-04-24T05:59:15;21.83;;;10.85;;
78844;SDS011;68195;50.854;2.860;2023-04-24T06:01:43;23.77;;;10.77;;
78844;SDS011;68195;50.854;2.860;2023-04-24T06:04:13;17.45;;;10.38;;
78844;SDS011;68195;50.854;2.860;2023-04-24T06:06:42;17.80;;;10.30;;
78844;SDS011;68195;50.854;2.860;2023-04-24T06:09:09;17.08;;;10.65;;
78844;SDS011;68195;50.854;2.860;2023-04-24T06:11:35;16.80;;;10.82;;
78844;SDS011;68195;50.854;2.860;2023-04-24T06:14:00;21.75;;;11.00;;
78844;SDS011;68195;50.854;2.860;2023-04-24T06:16:25;20.08;;;10.05;;
78844;SDS011;68195;50.854;2.860;2023-04-24T06:18:51;22.75;;;10.30;;
78844;SDS011;68195;50.854;2.860;2023-04-24T06:21:16;22.17;;;11.32;;
78844;SDS011;68195;50.854;2.860;2023-04-24T06:23:44;20.40;;;10.75;;
78844;SDS011;68195;50.854;2.860;2023-04-24T06:26:11;21.15;;;11.52;;
78844;SDS011;68195;50.854;2.860;2023-04-24T06:28:36;20.63;;;9.70;;
78844;SDS011;68195;50.854;2.860;2023-04-24T06:31:04;17.13;;;10.33;;
78844;SDS011;68195;50.854;2.860;2023-04-24T06:33:29;19.95;;;10.35;;
78844;SDS011;68195;50.854;2.860;2023-04-24T06:35:55;17.23;;;9.95;;
78844;SDS011;68195;50.854;2.860;2023-04-24T06:38:20;21.27;;;11.18;;
78844;SDS011;68195;50.854;2.860;2023-04-24T06:40:45;15.27;;;11.13;;
78844;SDS011;68195;50.854;2.860;2023-04-24T06:43:11;15.00;;;9.63;;
78844;SDS011;68195;50.854;2.860;2023-04-24T06:45:36;17.17;;;10.45;;
78844;SDS011;68195;50.854;2.860;2023-04-24T06:48:04;18.50;;;10.20;;
78844;SDS011;68195;50.854;2.860;2023-04-24T06:50:29;19.67;;;10.27;;
78844;SDS011;68195;50.854;2.860;2023-04-24T06:52:54;23.93;;;10.70;;
78844;SDS011;68195;50.854;2.860;2023-04-24T06:55:20;18.15;;;10.35;;
78844;SDS011;68195;50.854;2.860;2023-04-24T06:57:45;18.60;;;9.73;;
78844;SDS011;68195;50.854;2.860;2023-04-24T07:00:11;18.73;;;9.98;;
78844;SDS011;68195;50.854;2.860;2023-04-24T07:02:37;16.33;;;8.93;;
78844;SDS011;68195;50.854;2.860;2023-04-24T07:05:05;17.73;;;9.68;;
78844;SDS011;68195;50.854;2.860;2023-04-24T07:07:33;18.83;;;9.93;;
78844;SDS011;68195;50.854;2.860;2023-04-24T07:09:59;19.40;;;9.52;;
78844;SDS011;68195;50.854;2.860;2023-04-24T07:12:24;18.08;;;8.88;;
78844;SDS011;68195;50.854;2.860;2023-04-24T07:14:54;18.80;;;8.55;;
78844;SDS011;68195;50.854;2.860;2023-04-24T07:17:25;17.58;;;8.85;;
78844;SDS011;68195;50.854;2.860;2023-04-24T07:19:50;16.60;;;8.57;;
78844;SDS011;68195;50.854;2.860;2023-04-24T07:22:18;17.00;;;8.75;;
78844;SDS011;68195;50.854;2.860;2023-04-24T07:24:45;16.58;;;7.43;;
78844;SDS011;68195;50.854;2.860;2023-04-24T07:27:13;15.68;;;6.13;;
78844;SDS011;68195;50.854;2.860;2023-04-24T07:29:41;10.68;;;5.60;;
78844;SDS011;68195;50.854;2.860;2023-04-24T07:32:07;10.48;;;5.47;;
78844;SDS011;68195;50.854;2.860;2023-04-24T07:34:33;12.35;;;5.13;;
78844;SDS011;68195;50.854;2.860;2023-04-24T07:37:00;10.95;;;4.93;;
78844;SDS011;68195;50.854;2.860;2023-04-24T07:39:26;10.27;;;6.07;;
78844;SDS011;68195;50.854;2.860;2023-04-24T07:41:52;10.45;;;5.40;;
78844;SDS011;68195;50.854;2.860;2023-04-24T07:44:18;11.70;;;5.93;;
78844;SDS011;68195;50.854;2.860;2023-04-24T07:46:43;11.52;;;6.05;;
78844;SDS011;68195;50.854;2.860;2023-04-24T07:49:08;11.80;;;6.30;;
78844;SDS011;68195;50.854;2.860;2023-04-24T07:51:36;10.95;;;6.10;;
78844;SDS011;68195;50.854;2.860;2023-04-24T07:54:03;12.23;;;6.57;;
78844;SDS011;68195;50.854;2.860;2023-04-24T07:56:31;19.63;;;7.40;;
78844;SDS011;68195;50.854;2.860;2023-04-24T07:58:56;16.25;;;7.65;;
78844;SDS011;68195;50.854;2.860;2023-04-24T08:01:26;11.52;;;7.15;;
78844;SDS011;68195;50.854;2.860;2023-04-24T08:03:51;15.23;;;8.15;;
78844;SDS011;68195;50.854;2.860;2023-04-24T08:06:19;12.55;;;7.80;;
78844;SDS011;68195;50.854;2.860;2023-04-24T08:08:45;12.63;;;7.80;;
78844;SDS011;68195;50.854;2.860;2023-04-24T08:11:10;13.30;;;8.45;;
78844;SDS011;68195;50.854;2.860;2023-04-24T08:13:35;13.50;;;8.57;;
78844;SDS011;68195;50.854;2.860;2023-04-24T08:16:01;14.20;;;8.23;;
78844;SDS011;68195;50.854;2.860;2023-04-24T08:18:26;15.57;;;9.63;;
78844;SDS011;68195;50.854;2.860;2023-04-24T08:20:54;16.02;;;9.00;;
78844;SDS011;68195;50.854;2.860;2023-04-24T08:23:26;14.15;;;9.57;;
78844;SDS011;68195;50.854;2.860;2023-04-24T08:25:54;17.95;;;8.93;;
78844;SDS011;68195;50.854;2.860;2023-04-24T08:28:20;14.43;;;8.15;;
78844;SDS011;68195;50.854;2.860;2023-04-24T08:30:47;14.10;;;9.70;;
78844;SDS011;68195;50.854;2.860;2023-04-24T08:33:13;16.65;;;9.82;;
78844;SDS011;68195;50.854;2.860;2023-04-24T08:35:41;17.10;;;9.77;;
78844;SDS011;68195;50.854;2.860;2023-04-24T08:38:09;15.93;;;9.80;;
78844;SDS011;68195;50.854;2.860;2023-04-24T08:40:35;14.88;;;9.85;;
78844;SDS011;68195;50.854;2.860;2023-04-24T08:43:01;16.38;;;9.25;;
78844;SDS011;68195;50.854;2.860;2023-04-24T08:45:28;15.85;;;8.80;;
78844;SDS011;68195;50.854;2.860;2023-04-24T08:47:54;16.13;;;7.55;;
78844;SDS011;68195;50.854;2.860;2023-04-24T08:50:22;14.18;;;8.32;;
78844;SDS011;68195;50.854;2.860;2023-04-24T08:52:51;15.30;;;8.65;;
78844;SDS011;68195;50.854;2.860;2023-04-24T08:55:22;14.48;;;8.45;;
78844;SDS011;68195;50.854;2.860;2023-04-24T08:57:50;17.00;;;8.00;;
78844;SDS011;68195;50.854;2.860;2023-04-24T09:00:19;15.68;;;8.18;;
78844;SDS011;68195;50.854;2.860;2023-04-24T09:02:48;15.65;;;8.73;;
78844;SDS011;68195;50.854;2.860;2023-04-24T09:05:17;11.80;;;7.80;;
78844;SDS011;68195;50.854;2.860;2023-04-24T09:07:44;13.13;;;8.10;;
78844;SDS011;68195;50.854;2.860;2023-04-24T09:10:18;13.10;;;7.57;;
78844;SDS011;68195;50.854;2.860;2023-04-24T09:12:46;14.38;;;8.18;;
78844;SDS011;68195;50.854;2.860;2023-04-24T09:15:12;14.27;;;7.75;;
78844;SDS011;68195;50.854;2.860;2023-04-24T09:17:38;14.57;;;7.80;;
78844;SDS011;68195;50.854;2.860;2023-04-24T09:20:04;14.85;;;6.93;;
78844;SDS011;68195;50.854;2.860;2023-04-24T09:25:02;14.30;;;6.80;;
78844;SDS011;68195;50.854;2.860;2023-04-24T09:27:30;11.13;;;6.75;;
78844;SDS011;68195;50.854;2.860;2023-04-24T09:29:57;11.95;;;7.05;;
78844;SDS011;68195;50.854;2.860;2023-04-24T09:32:23;10.48;;;6.55;;
78844;SDS011;68195;50.854;2.860;2023-04-24T09:35:11;13.95;;;6.72;;
78844;SDS011;68195;50.854;2.860;2023-04-24T09:37:39;10.75;;;6.43;;
78844;SDS011;68195;50.854;2.860;2023-04-24T09:40:10;12.75;;;7.55;;
78844;SDS011;68195;50.854;2.860;2023-04-24T09:42:46;8.48;;;6.80;;
78844;SDS011;68195;50.854;2.860;2023-04-24T09:45:17;9.48;;;6.03;;
78844;SDS011;68195;50.854;2.860;2023-04-24T09:47:42;11.45;;;6.55;;
78844;SDS011;68195;50.854;2.860;2023-04-24T09:50:12;13.07;;;7.28;;
78844;SDS011;68195;50.854;2.860;2023-04-24T09:52:42;12.40;;;6.55;;
78844;SDS011;68195;50.854;2.860;2023-04-24T09:55:13;10.43;;;5.97;;
78844;SDS011;68195;50.854;2.860;2023-04-24T09:57:48;12.07;;;7.40;;
78844;SDS011;68195;50.854;2.860;2023-04-24T10:00:26;14.48;;;7.07;;
78844;SDS011;68195;50.854;2.860;2023-04-24T10:03:00;8.98;;;6.78;;
78844;SDS011;68195;50.854;2.860;2023-04-24T10:05:27;9.82;;;6.65;;
78844;SDS011;68195;50.854;2.860;2023-04-24T10:08:04;11.23;;;7.28;;
78844;SDS011;68195;50.854;2.860;2023-04-24T10:10:33;14.18;;;8.95;;
78844;SDS011;68195;50.854;2.860;2023-04-24T10:13:00;13.75;;;6.82;;
78844;SDS011;68195;50.854;2.860;2023-04-24T10:15:28;13.40;;;7.05;;
78844;SDS011;68195;50.854;2.860;2023-04-24T10:17:55;12.48;;;7.72;;
78844;SDS011;68195;50.854;2.860;2023-04-24T10:20:26;14.55;;;7.63;;
78844;SDS011;68195;50.854;2.860;2023-04-24T10:22:56;15.85;;;8.30;;
78844;SDS011;68195;50.854;2.860;2023-04-24T10:25:25;16.15;;;8.32;;
78844;SDS011;68195;50.854;2.860;2023-04-24T10:27:53;16.90;;;7.55;;
78844;SDS011;68195;50.854;2.860;2023-04-24T10:30:25;12.52;;;8.10;;
78844;SDS011;68195;50.854;2.860;2023-04-24T10:32:52;17.90;;;8.43;;
78844;SDS011;68195;50.854;2.860;2023-04-24T10:35:17;14.52;;;7.97;;
78844;SDS011;68195;50.854;2.860;2023-04-24T10:37:48;10.85;;;7.45;;
78844;SDS011;68195;50.854;2.860;2023-04-24T10:40:17;12.68;;;8.15;;
78844;SDS011;68195;50.854;2.860;2023-04-24T10:42:49;14.23;;;8.52;;
78844;SDS011;68195;50.854;2.860;2023-04-24T10:48:02;11.20;;;7.07;;
78844;SDS011;68195;50.854;2.860;2023-04-24T10:53:17;15.38;;;8.55;;
78844;SDS011;68195;50.854;2.860;2023-04-24T10:55:57;12.48;;;8.20;;
78844;SDS011;68195;50.854;2.860;2023-04-24T10:58:50;11.63;;;6.40;;
78844;SDS011;68195;50.854;2.860;2023-04-24T11:03:56;14.10;;;7.43;;
78844;SDS011;68195;50.854;2.860;2023-04-24T11:06:30;14.05;;;7.15;;
78844;SDS011;68195;50.854;2.860;2023-04-24T11:09:06;9.35;;;6.07;;
78844;SDS011;68195;50.854;2.860;2023-04-24T11:11:34;9.57;;;5.93;;
78844;SDS011;68195;50.854;2.860;2023-04-24T11:14:01;14.85;;;5.90;;
78844;SDS011;68195;50.854;2.860;2023-04-24T11:22:00;13.77;;;6.80;;
78844;SDS011;68195;50.854;2.860;2023-04-24T11:32:46;9.32;;;5.85;;
78844;SDS011;68195;50.854;2.860;2023-04-24T11:37:50;9.27;;;6.18;;
78844;SDS011;68195;50.854;2.860;2023-04-24T11:40:18;8.18;;;6.00;;
78844;SDS011;68195;50.854;2.860;2023-04-24T11:42:48;10.98;;;6.85;;
78844;SDS011;68195;50.854;2.860;2023-04-24T11:45:20;13.65;;;6.65;;
78844;SDS011;68195;50.854;2.860;2023-04-24T11:47:47;10.45;;;6.80;;
78844;SDS011;68195;50.854;2.860;2023-04-24T11:50:17;8.95;;;6.22;;
78844;SDS011;68195;50.854;2.860;2023-04-24T11:52:44;8.32;;;6.18;;
78844;SDS011;68195;50.854;2.860;2023-04-24T11:57:42;15.05;;;7.88;;
78844;SDS011;68195;50.854;2.860;2023-04-24T12:00:14;12.27;;;6.60;;
78844;SDS011;68195;50.854;2.860;2023-04-24T12:02:41;12.50;;;7.05;;
78844;SDS011;68195;50.854;2.860;2023-04-24T12:05:08;12.35;;;6.10;;
78844;SDS011;68195;50.854;2.860;2023-04-24T12:07:41;12.00;;;6.75;;
78844;SDS011;68195;50.854;2.860;2023-04-24T12:10:09;10.57;;;6.22;;
78844;SDS011;68195;50.854;2.860;2023-04-24T12:12:37;10.23;;;6.50;;
78844;SDS011;68195;50.854;2.860;2023-04-24T12:15:06;9.65;;;5.32;;
78844;SDS011;68195;50.854;2.860;2023-04-24T12:17:34;10.30;;;6.18;;
78844;SDS011;68195;50.854;2.860;2023-04-24T12:20:03;9.40;;;5.65;;
78844;SDS011;68195;50.854;2.860;2023-04-24T12:22:46;10.82;;;5.65;;
78844;SDS011;68195;50.854;2.860;2023-04-24T12:25:14;14.02;;;6.70;;
78844;SDS011;68195;50.854;2.860;2023-04-24T12:27:40;7.90;;;5.43;;
78844;SDS011;68195;50.854;2.860;2023-04-24T12:30:09;9.85;;;5.85;;
78844;SDS011;68195;50.854;2.860;2023-04-24T12:32:40;9.50;;;5.43;;
78844;SDS011;68195;50.854;2.860;2023-04-24T12:35:10;8.15;;;5.13;;
78844;SDS011;68195;50.854;2.860;2023-04-24T12:37:35;10.35;;;5.68;;
78844;SDS011;68195;50.854;2.860;2023-04-24T12:40:08;9.13;;;6.20;;
78844;SDS011;68195;50.854;2.860;2023-04-24T12:42:44;11.52;;;6.47;;
78844;SDS011;68195;50.854;2.860;2023-04-24T12:45:16;8.25;;;5.88;;
78844;SDS011;68195;50.854;2.860;2023-04-24T12:47:43;9.02;;;4.85;;
78844;SDS011;68195;50.854;2.860;2023-04-24T12:50:13;8.48;;;5.07;;
78844;SDS011;68195;50.854;2.860;2023-04-24T12:52:43;10.45;;;5.40;;
78844;SDS011;68195;50.854;2.860;2023-04-24T12:55:08;10.60;;;5.88;;
78844;SDS011;68195;50.854;2.860;2023-04-24T12:57:39;8.02;;;4.82;;
78844;SDS011;68195;50.854;2.860;2023-04-24T13:00:06;11.07;;;5.30;;
78844;SDS011;68195;50.854;2.860;2023-04-24T13:02:32;10.52;;;6.10;;
78844;SDS011;68195;50.854;2.860;2023-04-24T13:04:58;12.07;;;5.63;;
78844;SDS011;68195;50.854;2.860;2023-04-24T13:07:24;11.30;;;5.13;;
78844;SDS011;68195;50.854;2.860;2023-04-24T13:09:51;11.18;;;5.82;;
78844;SDS011;68195;50.854;2.860;2023-04-24T13:12:18;6.68;;;5.05;;
78844;SDS011;68195;50.854;2.860;2023-04-24T13:14:44;9.95;;;5.32;;
78844;SDS011;68195;50.854;2.860;2023-04-24T13:17:10;9.00;;;4.50;;
78844;SDS011;68195;50.854;2.860;2023-04-24T13:19:37;10.05;;;5.30;;
78844;SDS011;68195;50.854;2.860;2023-04-24T13:22:08;12.32;;;6.57;;
78844;SDS011;68195;50.854;2.860;2023-04-24T13:24:34;15.10;;;5.72;;
78844;SDS011;68195;50.854;2.860;2023-04-24T13:27:00;9.07;;;5.30;;
78844;SDS011;68195;50.854;2.860;2023-04-24T13:31:51;9.65;;;4.90;;
78844;SDS011;68195;50.854;2.860;2023-04-24T13:34:19;12.32;;;5.85;;
78844;SDS011;68195;50.854;2.860;2023-04-24T13:36:45;7.90;;;4.88;;
78844;SDS011;68195;50.854;2.860;2023-04-24T13:39:11;9.15;;;4.82;;
78844;SDS011;68195;50.854;2.860;2023-04-24T13:41:36;8.50;;;5.43;;
78844;SDS011;68195;50.854;2.860;2023-04-24T13:44:02;10.38;;;4.32;;
78844;SDS011;68195;50.854;2.860;2023-04-24T13:46:31;7.47;;;4.45;;
78844;SDS011;68195;50.854;2.860;2023-04-24T13:48:56;6.80;;;4.28;;
78844;SDS011;68195;50.854;2.860;2023-04-24T13:51:30;6.65;;;4.47;;
78844;SDS011;68195;50.854;2.860;2023-04-24T13:53:57;6.82;;;4.18;;
78844;SDS011;68195;50.854;2.860;2023-04-24T13:56:25;7.85;;;5.18;;
78844;SDS011;68195;50.854;2.860;2023-04-24T13:58:51;8.63;;;5.03;;
78844;SDS011;68195;50.854;2.860;2023-04-24T14:01:16;6.80;;;4.30;;
78844;SDS011;68195;50.854;2.860;2023-04-24T14:03:42;8.57;;;4.35;;
78844;SDS011;68195;50.854;2.860;2023-04-24T14:06:12;9.02;;;4.40;;
78844;SDS011;68195;50.854;2.860;2023-04-24T14:08:38;6.78;;;4.72;;
78844;SDS011;68195;50.854;2.860;2023-04-24T14:11:03;7.85;;;4.28;;
78844;SDS011;68195;50.854;2.860;2023-04-24T14:13:29;9.18;;;4.30;;
78844;SDS011;68195;50.854;2.860;2023-04-24T14:15:54;8.45;;;3.97;;
78844;SDS011;68195;50.854;2.860;2023-04-24T14:18:22;7.13;;;3.40;;
78844;SDS011;68195;50.854;2.860;2023-04-24T14:20:50;7.88;;;3.75;;
78844;SDS011;68195;50.854;2.860;2023-04-24T14:23:15;8.00;;;3.67;;
78844;SDS011;68195;50.854;2.860;2023-04-24T14:25:41;8.45;;;4.05;;
78844;SDS011;68195;50.854;2.860;2023-04-24T14:28:06;8.93;;;3.75;;
78844;SDS011;68195;50.854;2.860;2023-04-24T14:30:32;8.63;;;4.43;;
78844;SDS011;68195;50.854;2.860;2023-04-24T14:32:57;6.20;;;4.05;;
78844;SDS011;68195;50.854;2.860;2023-04-24T14:35:23;5.30;;;4.13;;
78844;SDS011;68195;50.854;2.860;2023-04-24T14:37:50;9.20;;;4.53;;
78844;SDS011;68195;50.854;2.860;2023-04-24T14:40:18;11.23;;;5.75;;
78844;SDS011;68195;50.854;2.860;2023-04-24T14:42:43;8.40;;;4.63;;
78844;SDS011;68195;50.854;2.860;2023-04-24T14:45:09;8.65;;;3.97;;
78844;SDS011;68195;50.854;2.860;2023-04-24T14:47:39;5.63;;;3.55;;
78844;SDS011;68195;50.854;2.860;2023-04-24T14:50:05;7.57;;;4.15;;
78844;SDS011;68195;50.854;2.860;2023-04-24T14:54:59;6.10;;;3.65;;
78844;SDS011;68195;50.854;2.860;2023-04-24T14:57:24;5.88;;;3.78;;
78844;SDS011;68195;50.854;2.860;2023-04-24T14:59:54;7.40;;;3.85;;
78844;SDS011;68195;50.854;2.860;2023-04-24T15:02:20;5.70;;;3.50;;
78844;SDS011;68195;50.854;2.860;2023-04-24T15:04:47;5.97;;;3.35;;
78844;SDS011;68195;50.854;2.860;2023-04-24T15:07:15;4.68;;;3.03;;
78844;SDS011;68195;50.854;2.860;2023-04-24T15:09:41;5.80;;;3.50;;
78844;SDS011;68195;50.854;2.860;2023-04-24T15:12:08;5.53;;;2.85;;
78844;SDS011;68195;50.854;2.860;2023-04-24T15:14:34;6.22;;;3.78;;
78844;SDS011;68195;50.854;2.860;2023-04-24T15:17:00;3.30;;;2.33;;
78844;SDS011;68195;50.854;2.860;2023-04-24T15:19:25;4.78;;;2.17;;
78844;SDS011;68195;50.854;2.860;2023-04-24T15:21:51;5.57;;;2.58;;
78844;SDS011;68195;50.854;2.860;2023-04-24T15:24:18;4.15;;;2.63;;